Time,TemperatureF,DewpointF,PressureIn,WindDirection,WindDirectionDegrees,WindSpeedMPH,WindSpeedGustMPH,Humidity,HourlyPrecipIn,Conditions,Clouds,dailyrainin,SoftwareType,DateUTC
2013-03-16 00:12:00,60.0,44.0,29.70,SSW,198,10.0,12.0,57,0.00,,,0.00,weatherlink.com 1.10,2013-03-16 04:12:00,
2013-03-16 00:27:00,59.9,45.0,29.68,South,180,6.0,16.0,59,0.00,,,0.00,weatherlink.com 1.10,2013-03-16 04:27:00,
2013-03-16 00:42:00,59.6,45.0,29.68,SSE,166,6.0,12.0,60,0.00,,,0.00,weatherlink.com 1.10,2013-03-16 04:42:00,
2013-03-16 00:57:00,60.2,47.0,29.67,SSW,199,6.0,12.0,61,0.00,,,0.00,weatherlink.com 1.10,2013-03-16 04:57:00,
2013-03-16 01:12:00,61.6,48.0,29.67,South,191,6.0,15.0,62,0.00,,,0.00,weatherlink.com 1.10,2013-03-16 05:12:00,
2013-03-16 01:27:00,62.6,49.0,29.66,South,178,5.0,14.0,61,0.00,,,0.00,weatherlink.com 1.10,2013-03-16 05:27:00,
2013-03-16 01:42:00,63.1,49.0,29.65,SSW,208,7.0,15.0,61,0.00,,,0.00,weatherlink.com 1.10,2013-03-16 05:42:00,
2013-03-16 01:57:00,63.1,50.0,29.65,SW,225,6.0,17.0,62,0.00,,,0.00,weatherlink.com 1.10,2013-03-16 05:57:00,
2013-03-16 02:13:00,63.5,50.0,29.65,SW,214,11.0,18.0,61,0.00,,,0.00,weatherlink.com 1.10,2013-03-16 06:13:00,
2013-03-16 02:28:00,63.3,50.0,29.65,SW,217,6.0,20.0,62,0.00,,,0.00,weatherlink.com 1.10,2013-03-16 06:28:00,
2013-03-16 02:43:00,62.8,50.0,29.66,West,264,6.0,9.0,63,0.00,,,0.00,weatherlink.com 1.10,2013-03-16 06:43:00,
2013-03-16 02:58:00,62.9,50.0,29.66,WSW,240,6.0,14.0,63,0.00,,,0.00,weatherlink.com 1.10,2013-03-16 06:58:00,
2013-03-16 03:13:00,63.0,50.0,29.66,WSW,256,3.0,12.0,63,0.00,,,0.00,weatherlink.com 1.10,2013-03-16 07:13:00,
2013-03-16 03:28:00,62.4,50.0,29.66,SW,222,5.0,7.0,64,0.00,,,0.00,weatherlink.com 1.10,2013-03-16 07:28:00,
2013-03-16 03:43:00,62.0,50.0,29.65,SW,227,4.0,9.0,65,0.00,,,0.00,weatherlink.com 1.10,2013-03-16 07:43:00,
2013-03-16 03:58:00,62.1,50.0,29.65,SW,233,2.0,10.0,65,0.00,,,0.00,weatherlink.com 1.10,2013-03-16 07:58:00,
2013-03-16 04:13:00,62.1,50.0,29.64,South,178,5.0,11.0,65,0.00,,,0.00,weatherlink.com 1.10,2013-03-16 08:13:00,
2013-03-16 04:28:00,62.4,50.0,29.64,WSW,238,7.0,12.0,64,0.00,,,0.00,weatherlink.com 1.10,2013-03-16 08:28:00,
2013-03-16 04:43:00,62.1,50.0,29.64,WSW,248,7.0,10.0,65,0.00,,,0.00,weatherlink.com 1.10,2013-03-16 08:43:00,
2013-03-16 04:58:00,62.1,50.0,29.64,SW,219,1.0,14.0,65,0.00,,,0.00,weatherlink.com 1.10,2013-03-16 08:58:00,
2013-03-16 05:13:00,61.8,50.0,29.64,WSW,257,5.0,11.0,65,0.00,,,0.00,weatherlink.com 1.10,2013-03-16 09:13:00,
2013-03-16 05:28:00,61.6,50.0,29.64,SW,215,2.0,8.0,65,0.00,,,0.00,weatherlink.com 1.10,2013-03-16 09:28:00,
2013-03-16 05:43:00,61.2,50.0,29.64,SW,230,3.0,6.0,66,0.00,,,0.00,weatherlink.com 1.10,2013-03-16 09:43:00,
2013-03-16 05:58:00,60.5,49.0,29.64,SW,219,3.0,5.0,67,0.00,,,0.00,weatherlink.com 1.10,2013-03-16 09:58:00,
2013-03-16 06:13:00,59.8,49.0,29.64,WSW,244,2.0,6.0,68,0.00,,,0.00,weatherlink.com 1.10,2013-03-16 10:13:00,
2013-03-16 06:43:00,59.9,49.0,29.64,WSW,239,3.0,8.0,68,0.00,,,0.00,weatherlink.com 1.10,2013-03-16 10:43:00,
2013-03-16 06:58:00,59.8,49.0,29.65,SW,217,7.0,9.0,68,0.00,,,0.00,weatherlink.com 1.10,2013-03-16 10:58:00,
2013-03-16 07:13:00,59.5,49.0,29.65,SW,215,4.0,7.0,68,0.00,,,0.00,weatherlink.com 1.10,2013-03-16 11:13:00,
2013-03-16 07:28:00,59.0,49.0,29.65,SW,219,2.0,4.0,69,0.00,,,0.00,weatherlink.com 1.10,2013-03-16 11:28:00,
2013-03-16 07:43:00,58.8,49.0,29.65,SSW,198,1.0,5.0,69,0.00,,,0.00,weatherlink.com 1.10,2013-03-16 11:43:00,
2013-03-16 08:13:00,58.2,49.0,29.65,SW,233,3.0,6.0,71,0.00,,,0.00,weatherlink.com 1.10,2013-03-16 12:13:00,
2013-03-16 08:28:00,58.5,49.0,29.65,WSW,246,2.0,6.0,70,0.00,,,0.00,weatherlink.com 1.10,2013-03-16 12:28:00,
2013-03-16 08:43:00,58.7,49.0,29.65,SW,219,3.0,8.0,70,0.00,,,0.00,weatherlink.com 1.10,2013-03-16 12:43:00,
2013-03-16 08:58:00,59.5,49.0,29.66,SW,222,5.0,8.0,69,0.00,,,0.00,weatherlink.com 1.10,2013-03-16 12:58:00,
2013-03-16 09:13:00,60.5,50.0,29.66,SSW,209,4.0,11.0,68,0.00,,,0.00,weatherlink.com 1.10,2013-03-16 13:13:00,
2013-03-16 09:28:00,61.5,50.0,29.66,SW,221,6.0,12.0,65,0.00,,,0.00,weatherlink.com 1.10,2013-03-16 13:28:00,
2013-03-16 09:43:00,62.3,50.0,29.67,SW,217,5.0,14.0,64,0.00,,,0.00,weatherlink.com 1.10,2013-03-16 13:43:00,
2013-03-16 09:58:00,63.5,50.0,29.67,SW,232,7.0,13.0,62,0.00,,,0.00,weatherlink.com 1.10,2013-03-16 13:58:00,
2013-03-16 10:13:00,64.1,50.0,29.67,SW,222,14.0,14.0,60,0.00,,,0.00,weatherlink.com 1.10,2013-03-16 14:13:00,
2013-03-16 10:28:00,64.3,49.0,29.67,WSW,257,6.0,22.0,59,0.00,,,0.00,weatherlink.com 1.10,2013-03-16 14:28:00,
2013-03-16 10:43:00,64.0,50.0,29.68,WNW,293,9.0,20.0,60,0.00,,,0.00,weatherlink.com 1.10,2013-03-16 14:43:00,
2013-03-16 10:58:00,63.8,50.0,29.69,WNW,302,14.0,18.0,61,0.00,,,0.00,weatherlink.com 1.10,2013-03-16 14:58:00,
2013-03-16 11:13:00,63.4,50.0,29.70,WSW,243,10.0,18.0,62,0.00,,,0.00,weatherlink.com 1.10,2013-03-16 15:13:00,
2013-03-16 11:28:00,63.8,50.0,29.70,WSW,257,6.0,21.0,62,0.00,,,0.00,weatherlink.com 1.10,2013-03-16 15:28:00,
2013-03-16 11:43:00,63.8,49.0,29.71,WNW,295,1.0,12.0,60,0.00,,,0.00,weatherlink.com 1.10,2013-03-16 15:43:00,
2013-03-16 11:58:00,63.8,49.0,29.72,West,259,7.0,11.0,60,0.00,,,0.00,weatherlink.com 1.10,2013-03-16 15:58:00,
2013-03-16 12:13:00,63.9,50.0,29.73,WNW,284,4.0,12.0,61,0.00,,,0.00,weatherlink.com 1.10,2013-03-16 16:13:00,
2013-03-16 12:28:00,63.6,51.0,29.73,WSW,240,7.0,14.0,63,0.00,,,0.00,weatherlink.com 1.10,2013-03-16 16:28:00,
2013-03-16 12:43:00,64.3,49.0,29.74,West,263,0.0,14.0,59,0.00,,,0.00,weatherlink.com 1.10,2013-03-16 16:43:00,
2013-03-16 12:58:00,64.5,48.0,29.76,NNW,337,8.0,15.0,55,0.00,,,0.00,weatherlink.com 1.10,2013-03-16 16:58:00,
2013-03-16 13:13:00,63.0,46.0,29.77,NW,311,13.0,13.0,55,0.00,,,0.00,weatherlink.com 1.10,2013-03-16 17:13:00,
2013-03-16 13:28:00,61.9,47.0,29.78,North,351,3.0,13.0,58,0.00,,,0.00,weatherlink.com 1.10,2013-03-16 17:28:00,
2013-03-16 13:43:00,61.7,46.0,29.79,SW,226,6.0,11.0,57,0.00,,,0.00,weatherlink.com 1.10,2013-03-16 17:43:00,
2013-03-16 13:58:00,61.6,46.0,29.79,West,276,5.0,13.0,57,0.00,,,0.00,weatherlink.com 1.10,2013-03-16 17:58:00,
2013-03-16 14:13:00,60.7,46.0,29.80,SW,231,6.0,14.0,58,0.00,,,0.00,weatherlink.com 1.10,2013-03-16 18:13:00,
2013-03-16 14:28:00,61.2,46.0,29.80,West,263,6.0,9.0,57,0.00,,,0.00,weatherlink.com 1.10,2013-03-16 18:28:00,
2013-03-16 14:43:00,60.2,45.0,29.80,West,261,1.0,12.0,58,0.00,,,0.00,weatherlink.com 1.10,2013-03-16 18:43:00,
2013-03-16 14:58:00,60.2,45.0,29.81,WSW,249,6.0,11.0,57,0.00,,,0.00,weatherlink.com 1.10,2013-03-16 18:58:00,
2013-03-16 15:13:00,60.7,45.0,29.82,NNW,331,3.0,11.0,56,0.00,,,0.00,weatherlink.com 1.10,2013-03-16 19:13:00,
2013-03-16 15:29:00,61.7,45.0,29.82,NW,306,1.0,7.0,55,0.00,,,0.00,weatherlink.com 1.10,2013-03-16 19:29:00,
2013-03-16 15:44:00,61.2,45.0,29.82,West,272,1.0,9.0,55,0.00,,,0.00,weatherlink.com 1.10,2013-03-16 19:44:00,
2013-03-16 15:59:00,61.5,44.0,29.82,WSW,250,9.0,10.0,54,0.00,,,0.00,weatherlink.com 1.10,2013-03-16 19:59:00,
2013-03-16 16:14:00,60.7,44.0,29.83,NNW,345,4.0,10.0,55,0.00,,,0.00,weatherlink.com 1.10,2013-03-16 20:14:00,
2013-03-16 16:29:00,59.6,44.0,29.83,NW,321,4.0,8.0,56,0.00,,,0.00,weatherlink.com 1.10,2013-03-16 20:29:00,
2013-03-16 16:44:00,57.8,43.0,29.84,West,275,3.0,10.0,59,0.00,,,0.00,weatherlink.com 1.10,2013-03-16 20:44:00,
2013-03-16 16:59:00,57.2,43.0,29.85,WNW,292,3.0,12.0,59,0.00,,,0.00,weatherlink.com 1.10,2013-03-16 20:59:00,
2013-03-16 17:14:00,55.3,42.0,29.87,NNW,339,3.0,12.0,62,0.00,,,0.00,weatherlink.com 1.10,2013-03-16 21:14:00,
2013-03-16 17:29:00,53.8,42.0,29.89,West,277,1.0,14.0,64,0.00,,,0.00,weatherlink.com 1.10,2013-03-16 21:29:00,
2013-03-16 17:44:00,53.3,41.0,29.88,WNW,289,6.0,11.0,64,0.00,,,0.00,weatherlink.com 1.10,2013-03-16 21:44:00,
2013-03-16 17:59:00,51.0,40.0,29.89,NW,313,8.0,10.0,67,0.00,,,0.00,weatherlink.com 1.10,2013-03-16 21:59:00,
2013-03-16 18:14:00,49.8,40.0,29.88,WNW,301,5.0,8.0,70,0.00,,,0.00,weatherlink.com 1.10,2013-03-16 22:14:00,
2013-03-16 18:29:00,49.2,40.0,29.89,NW,326,3.0,11.0,70,0.00,,,0.00,weatherlink.com 1.10,2013-03-16 22:29:00,
2013-03-16 18:44:00,48.7,39.0,29.89,North,360,4.0,11.0,70,0.00,,,0.00,weatherlink.com 1.10,2013-03-16 22:44:00,
2013-03-16 18:59:00,48.3,39.0,29.90,WNW,289,4.0,9.0,71,0.00,,,0.00,weatherlink.com 1.10,2013-03-16 22:59:00,
2013-03-16 19:14:00,47.8,39.0,29.90,NW,321,1.0,10.0,72,0.00,,,0.00,weatherlink.com 1.10,2013-03-16 23:14:00,
2013-03-16 19:29:00,47.6,39.0,29.90,NNW,336,6.0,6.0,72,0.00,,,0.00,weatherlink.com 1.10,2013-03-16 23:29:00,
2013-03-16 19:44:00,47.2,39.0,29.91,NNW,329,6.0,9.0,72,0.00,,,0.00,weatherlink.com 1.10,2013-03-16 23:44:00,
2013-03-16 19:59:00,46.9,39.0,29.91,North,351,5.0,7.0,73,0.00,,,0.00,weatherlink.com 1.10,2013-03-16 23:59:00,
2013-03-16 20:14:00,46.2,38.0,29.94,NNE,28,2.0,10.0,74,0.00,,,0.00,weatherlink.com 1.10,2013-03-17 00:14:00,
2013-03-16 20:29:00,45.0,38.0,29.96,NW,315,3.0,12.0,75,0.00,,,0.00,weatherlink.com 1.10,2013-03-17 00:29:00,
2013-03-16 20:44:00,44.4,37.0,29.97,North,355,5.0,7.0,76,0.00,,,0.00,weatherlink.com 1.10,2013-03-17 00:44:00,
2013-03-16 21:00:00,44.2,37.0,29.97,North,10,2.0,6.0,77,0.00,,,0.00,weatherlink.com 1.10,2013-03-17 01:00:00,
2013-03-16 21:15:00,43.8,37.0,29.98,NNW,345,2.0,7.0,78,0.00,,,0.00,weatherlink.com 1.10,2013-03-17 01:15:00,
2013-03-16 21:30:00,43.5,37.0,29.98,North,360,3.0,8.0,78,0.00,,,0.00,weatherlink.com 1.10,2013-03-17 01:30:00,
2013-03-16 21:45:00,43.1,37.0,29.98,NE,39,1.0,7.0,80,0.00,,,0.00,weatherlink.com 1.10,2013-03-17 01:45:00,
2013-03-16 22:00:00,42.5,37.0,29.98,NW,321,4.0,5.0,82,0.00,,,0.00,weatherlink.com 1.10,2013-03-17 02:00:00,
2013-03-16 22:15:00,42.0,37.0,29.98,NNW,348,0.0,7.0,81,0.00,,,0.00,weatherlink.com 1.10,2013-03-17 02:15:00,
2013-03-16 22:30:00,41.9,37.0,29.98,NNW,333,2.0,7.0,81,0.00,,,0.00,weatherlink.com 1.10,2013-03-17 02:30:00,
2013-03-16 22:45:00,41.8,36.0,29.98,North,355,1.0,6.0,81,0.00,,,0.00,weatherlink.com 1.10,2013-03-17 02:45:00,
2013-03-16 23:00:00,41.7,36.0,29.98,NNE,15,2.0,4.0,81,0.00,,,0.00,weatherlink.com 1.10,2013-03-17 03:00:00,
2013-03-16 23:15:00,41.5,36.0,29.99,NNW,343,1.0,6.0,82,0.00,,,0.00,weatherlink.com 1.10,2013-03-17 03:15:00,
2013-03-16 23:30:00,41.2,36.0,29.99,NNE,15,2.0,5.0,82,0.00,,,0.00,weatherlink.com 1.10,2013-03-17 03:30:00,
2013-03-16 23:45:00,41.1,36.0,29.99,NNW,348,0.0,5.0,83,0.00,,,0.00,weatherlink.com 1.10,2013-03-17 03:45:00,